createdAt,value
2022-11-28T00:01:36.325Z,10.10
2022-11-28T00:04:06.803Z,9.00
2022-11-28T00:06:38.000Z,10.13
2022-11-28T00:09:06.702Z,7.57
2022-11-28T00:11:35.217Z,9.83
2022-11-28T00:14:03.674Z,8.33
2022-11-28T00:16:32.344Z,8.50
2022-11-28T00:19:01.574Z,11.17
2022-11-28T00:21:32.156Z,10.43
2022-11-28T00:24:01.430Z,10.87
2022-11-28T00:26:31.231Z,10.10
2022-11-28T00:29:00.606Z,12.30
2022-11-28T00:31:30.200Z,15.63
2022-11-28T00:33:59.014Z,15.73
2022-11-28T00:36:27.436Z,13.37
2022-11-28T00:38:57.581Z,14.73
2022-11-28T00:41:27.056Z,10.60
2022-11-28T00:43:55.701Z,10.10
2022-11-28T00:46:24.692Z,13.47
2022-11-28T00:48:53.355Z,12.57
2022-11-28T00:51:22.635Z,9.33
2022-11-28T00:53:52.080Z,14.50
2022-11-28T00:56:23.083Z,11.87
2022-11-28T00:58:51.720Z,15.57
2022-11-28T01:01:21.717Z,9.93
2022-11-28T01:03:50.972Z,14.13
2022-11-28T01:06:23.068Z,9.30
2022-11-28T01:08:51.511Z,8.30
2022-11-28T01:11:19.950Z,8.97
2022-11-28T01:13:49.978Z,6.80
2022-11-28T01:16:18.471Z,9.80
2022-11-28T01:18:47.007Z,9.80
2022-11-28T01:21:15.447Z,8.07
2022-11-28T01:23:44.418Z,9.10
2022-11-28T01:26:14.409Z,10.40
2022-11-28T01:28:42.868Z,14.83
2022-11-28T01:31:13.920Z,10.87
2022-11-28T01:33:42.459Z,14.20
2022-11-28T01:36:12.111Z,9.70
2022-11-28T01:38:40.737Z,7.67
2022-11-28T01:41:09.470Z,8.30
2022-11-28T01:43:38.168Z,10.80
2022-11-28T01:46:07.543Z,10.90
2022-11-28T01:48:40.260Z,8.67
2022-11-28T01:51:10.878Z,10.53
2022-11-28T01:53:41.642Z,11.10
2022-11-28T01:56:11.262Z,8.67
2022-11-28T01:58:41.499Z,12.40
2022-11-28T02:01:10.345Z,9.53
2022-11-28T02:03:43.871Z,9.33
2022-11-28T02:06:12.433Z,9.50
2022-11-28T02:08:40.948Z,12.83
2022-11-28T02:11:14.511Z,16.17
2022-11-28T02:13:47.251Z,18.23
2022-11-28T02:16:24.547Z,10.23
2022-11-28T02:18:59.157Z,12.70
2022-11-28T02:21:40.233Z,9.93
2022-11-28T02:24:31.714Z,7.53
2022-11-28T02:27:30.261Z,13.47
2022-11-28T02:30:05.233Z,12.57
2022-11-28T02:32:42.561Z,19.40
2022-11-28T02:35:13.598Z,14.13
2022-11-28T02:37:45.533Z,12.87
2022-11-28T02:40:18.279Z,13.57
2022-11-28T02:42:52.661Z,16.30
2022-11-28T02:45:25.942Z,17.73
2022-11-28T02:47:59.840Z,15.10
2022-11-28T02:50:30.561Z,20.63
2022-11-28T02:53:01.810Z,10.03
2022-11-28T02:55:30.202Z,14.00
2022-11-28T02:57:58.777Z,9.30
2022-11-28T03:00:30.054Z,12.40
2022-11-28T03:03:10.030Z,13.27
2022-11-28T03:05:42.784Z,12.27
2022-11-28T03:08:20.488Z,12.97
2022-11-28T03:10:52.826Z,8.83
2022-11-28T03:13:24.030Z,11.93
2022-11-28T03:15:57.486Z,12.80
2022-11-28T03:18:29.757Z,10.47
2022-11-28T03:20:58.989Z,8.90
2022-11-28T03:23:32.634Z,10.57
2022-11-28T03:26:02.123Z,12.73
2022-11-28T03:28:33.469Z,12.27
2022-11-28T03:31:03.907Z,13.57
2022-11-28T03:33:36.221Z,14.60
2022-11-28T03:36:06.123Z,16.87
2022-11-28T03:38:38.274Z,13.40
2022-11-28T03:41:09.703Z,22.47
2022-11-28T03:43:42.057Z,18.07
2022-11-28T03:46:13.342Z,21.67
2022-11-28T03:48:45.946Z,21.77
2022-11-28T03:51:16.868Z,22.07
2022-11-28T03:53:50.275Z,21.13
2022-11-28T03:56:21.805Z,21.77
2022-11-28T03:58:54.812Z,17.07
2022-11-28T04:01:29.476Z,17.60
2022-11-28T04:04:01.951Z,17.07
2022-11-28T04:06:33.398Z,14.23
2022-11-28T04:09:04.273Z,17.70
2022-11-28T04:11:35.642Z,15.43
2022-11-28T04:14:06.548Z,15.47
2022-11-28T04:16:37.095Z,16.80
2022-11-28T04:19:09.501Z,14.43
2022-11-28T04:21:42.225Z,17.63
2022-11-28T04:24:12.654Z,19.73
2022-11-28T04:26:43.180Z,17.00
2022-11-28T04:29:12.899Z,20.47
2022-11-28T04:31:43.014Z,14.43
2022-11-28T04:34:16.783Z,12.27
2022-11-28T04:36:45.935Z,13.30
2022-11-28T04:39:16.273Z,13.77
2022-11-28T04:41:47.274Z,12.07
2022-11-28T04:44:18.808Z,12.67
2022-11-28T04:46:49.478Z,12.83
2022-11-28T04:49:19.484Z,16.10
2022-11-28T04:51:51.885Z,16.20
2022-11-28T04:54:22.619Z,21.63
2022-11-28T04:56:54.708Z,21.30
2022-11-28T04:59:24.140Z,25.20
2022-11-28T05:01:52.580Z,29.30
2022-11-28T05:04:22.537Z,25.93
2022-11-28T05:06:51.019Z,24.90
2022-11-28T05:09:19.409Z,23.43
2022-11-28T05:11:47.969Z,34.77
2022-11-28T05:14:18.964Z,32.13
2022-11-28T05:16:47.511Z,34.07
2022-11-28T05:19:16.011Z,33.33
2022-11-28T05:21:46.120Z,36.60
2022-11-28T05:24:14.928Z,37.53
2022-11-28T05:26:43.450Z,43.30
2022-11-28T05:29:11.933Z,42.43
2022-11-28T05:31:40.422Z,45.73
2022-11-28T05:34:09.121Z,46.77
2022-11-28T05:36:37.614Z,62.97
2022-11-28T05:39:07.586Z,152.17
2022-11-28T05:41:36.118Z,52.70
2022-11-28T05:44:04.761Z,45.23
2022-11-28T05:46:33.211Z,44.57
2022-11-28T05:49:01.726Z,44.87
2022-11-28T05:51:30.219Z,42.40
2022-11-28T05:53:58.648Z,42.57
2022-11-28T05:56:28.432Z,46.30
2022-11-28T05:58:56.813Z,44.70
2022-11-28T06:01:26.667Z,48.23
2022-11-28T06:03:59.914Z,45.07
2022-11-28T06:06:29.280Z,41.80
2022-11-28T06:08:58.019Z,43.77
2022-11-28T06:11:29.365Z,41.60
2022-11-28T06:13:57.997Z,45.17
2022-11-28T06:16:27.775Z,51.03
2022-11-28T06:18:57.050Z,45.77
2022-11-28T06:21:26.074Z,37.10
2022-11-28T06:23:54.938Z,41.37
2022-11-28T06:26:24.844Z,40.60
2022-11-28T06:28:55.506Z,46.57
2022-11-28T06:31:24.944Z,40.53
2022-11-28T06:33:53.369Z,42.37
2022-11-28T06:36:22.074Z,44.67
2022-11-28T06:38:50.711Z,41.23
2022-11-28T06:41:20.488Z,35.13
2022-11-28T06:43:48.984Z,33.90
2022-11-28T06:46:20.026Z,40.63
2022-11-28T06:48:48.981Z,42.37
2022-11-28T06:51:17.904Z,35.80
2022-11-28T06:53:46.350Z,37.73
2022-11-28T06:56:16.287Z,34.70
2022-11-28T06:58:45.315Z,30.73
2022-11-28T07:01:14.538Z,34.50
2022-11-28T07:03:44.959Z,32.30
2022-11-28T07:06:14.141Z,33.67
2022-11-28T07:08:42.961Z,30.87
2022-11-28T07:11:12.482Z,33.20
2022-11-28T07:13:40.945Z,31.80
2022-11-28T07:16:09.639Z,28.83
2022-11-28T07:18:38.648Z,29.30
2022-11-28T07:21:08.645Z,28.30
2022-11-28T07:23:37.107Z,20.17
2022-11-28T07:26:06.042Z,21.27
2022-11-28T07:28:34.947Z,24.27
2022-11-28T07:31:04.225Z,21.57
2022-11-28T07:33:32.924Z,24.50
2022-11-28T07:36:02.066Z,21.77
2022-11-28T07:38:31.931Z,26.17
2022-11-28T07:41:04.325Z,20.23
2022-11-28T07:43:32.728Z,24.10
2022-11-28T07:46:01.775Z,20.17
2022-11-28T07:48:30.362Z,12.07
2022-11-28T07:50:58.858Z,16.63
2022-11-28T07:53:27.584Z,16.80
2022-11-28T07:55:57.384Z,16.93
2022-11-28T07:58:25.871Z,18.07
2022-11-28T08:00:54.368Z,16.73
2022-11-28T08:03:23.185Z,17.83
2022-11-28T08:05:51.707Z,13.97
2022-11-28T08:08:20.679Z,14.77
2022-11-28T08:10:49.154Z,16.87
2022-11-28T08:13:19.106Z,19.63
2022-11-28T08:15:47.516Z,19.93
2022-11-28T08:18:15.994Z,19.00
2022-11-28T08:20:44.501Z,18.23
2022-11-28T08:23:12.981Z,17.70
2022-11-28T08:25:41.639Z,16.17
2022-11-28T08:28:10.100Z,26.20
2022-11-28T08:30:39.999Z,20.00
2022-11-28T08:33:08.458Z,11.50
2022-11-28T08:35:36.797Z,15.37
2022-11-28T08:38:05.211Z,15.30
2022-11-28T08:40:33.672Z,17.70
2022-11-28T08:43:02.150Z,18.60
2022-11-28T08:45:30.726Z,22.40
2022-11-28T08:48:01.872Z,27.33
2022-11-28T08:50:30.357Z,29.20
2022-11-28T08:53:01.773Z,33.87
2022-11-28T08:55:40.539Z,32.53
2022-11-28T08:58:10.474Z,34.93
2022-11-28T09:00:39.080Z,35.17
2022-11-28T09:03:08.872Z,36.73
2022-11-28T09:05:37.448Z,33.30
2022-11-28T09:08:10.225Z,36.83
2022-11-28T09:10:41.255Z,35.33
2022-11-28T09:13:10.061Z,35.90
2022-11-28T09:15:40.961Z,35.60
2022-11-28T09:18:11.106Z,38.50
2022-11-28T09:20:39.729Z,38.17
2022-11-28T09:23:08.277Z,35.03
2022-11-28T09:25:36.748Z,42.20
2022-11-28T09:28:05.350Z,42.00
2022-11-28T09:30:34.420Z,38.30
2022-11-28T09:33:03.020Z,33.47
2022-11-28T09:35:32.844Z,37.73
2022-11-28T09:38:01.288Z,38.33
2022-11-28T09:40:33.870Z,31.77
2022-11-28T09:43:03.146Z,33.17
2022-11-28T09:45:33.224Z,23.83
2022-11-28T09:48:17.306Z,23.10
2022-11-28T09:50:48.146Z,21.27
2022-11-28T09:53:24.166Z,14.47
2022-11-28T09:55:54.409Z,16.07
2022-11-28T09:58:26.867Z,25.40
2022-11-28T10:00:57.922Z,27.70
2022-11-28T10:03:35.008Z,37.97
2022-11-28T10:06:09.476Z,38.73
2022-11-28T10:08:41.178Z,36.67
2022-11-28T10:11:13.674Z,37.80
2022-11-28T10:14:07.113Z,43.00
2022-11-28T10:16:42.525Z,58.90
2022-11-28T10:19:31.540Z,59.57
2022-11-28T10:22:05.214Z,54.33
2022-11-28T10:24:38.076Z,59.27
2022-11-28T10:27:07.970Z,62.73
2022-11-28T10:29:41.924Z,68.10
2022-11-28T10:32:14.036Z,50.37
2022-11-28T10:34:45.371Z,55.13
2022-11-28T10:37:17.873Z,59.07
2022-11-28T10:39:47.159Z,59.87
2022-11-28T10:42:18.280Z,63.03
2022-11-28T10:44:51.927Z,56.23
2022-11-28T10:47:24.216Z,57.93
2022-11-28T10:49:56.374Z,55.93
2022-11-28T10:52:28.234Z,51.80
2022-11-28T10:55:09.401Z,53.80
2022-11-28T10:57:41.304Z,50.17
2022-11-28T11:00:12.893Z,48.57
2022-11-28T11:02:43.280Z,50.50
2022-11-28T11:05:14.554Z,57.60
2022-11-28T11:07:48.999Z,55.13
2022-11-28T11:10:19.409Z,54.77
2022-11-28T11:12:48.305Z,50.80
2022-11-28T11:15:18.345Z,50.73
2022-11-28T11:17:46.828Z,60.87
2022-11-28T11:20:29.958Z,50.33
2022-11-28T11:23:00.865Z,49.57
2022-11-28T11:25:30.213Z,46.40
2022-11-28T11:28:01.033Z,50.93
2022-11-28T11:30:30.902Z,48.50
2022-11-28T11:33:00.606Z,48.60
2022-11-28T11:35:30.763Z,48.87
2022-11-28T11:38:16.858Z,53.57
2022-11-28T11:40:45.639Z,49.67
2022-11-28T11:43:25.735Z,57.90
2022-11-28T11:46:06.721Z,49.60
2022-11-28T11:48:38.860Z,52.10
2022-11-28T11:51:08.018Z,50.43
2022-11-28T11:53:37.828Z,51.43
2022-11-28T11:56:06.290Z,47.30
2022-11-28T11:58:38.770Z,51.93
2022-11-28T12:01:08.093Z,48.33
2022-11-28T12:03:41.586Z,45.37
2022-11-28T12:06:15.225Z,46.97
2022-11-28T12:08:46.941Z,49.17
2022-11-28T12:11:17.417Z,49.23
2022-11-28T12:13:45.955Z,49.57
2022-11-28T12:16:23.366Z,48.20
2022-11-28T12:18:57.679Z,54.17
2022-11-28T12:21:29.121Z,48.10
2022-11-28T12:24:05.990Z,47.40
2022-11-28T12:26:37.988Z,51.87
2022-11-28T12:29:13.073Z,48.67
2022-11-28T12:31:48.239Z,48.70
2022-11-28T12:34:24.999Z,50.33
2022-11-28T12:37:00.791Z,50.87
2022-11-28T12:39:35.468Z,51.60
2022-11-28T12:42:12.012Z,51.13
2022-11-28T12:44:55.659Z,57.53
2022-11-28T12:47:31.038Z,63.43
2022-11-28T12:50:04.961Z,61.87
2022-11-28T12:52:37.595Z,52.33
2022-11-28T12:55:20.636Z,49.50
2022-11-28T12:57:53.259Z,52.90
2022-11-28T13:00:22.828Z,49.03
2022-11-28T13:03:03.678Z,49.50
2022-11-28T13:05:36.487Z,50.57
2022-11-28T13:08:09.505Z,53.17
2022-11-28T13:10:42.147Z,110.97
2022-11-28T13:13:12.698Z,59.10
2022-11-28T13:15:48.268Z,46.83
2022-11-28T13:18:21.779Z,50.23
2022-11-28T13:20:54.367Z,53.50
2022-11-28T13:23:26.070Z,49.53
2022-11-28T13:25:59.036Z,49.33
2022-11-28T13:28:32.660Z,47.17
2022-11-28T13:31:05.849Z,50.73
2022-11-28T13:33:40.126Z,54.77
2022-11-28T13:36:10.929Z,51.47
2022-11-28T13:39:00.279Z,54.53
2022-11-28T13:42:09.568Z,53.13
2022-11-28T13:44:30.957Z,60.20
2022-11-28T13:46:59.516Z,51.40
2022-11-28T13:49:29.678Z,52.70
2022-11-28T13:52:24.914Z,52.00
2022-11-28T13:54:54.356Z,52.83
2022-11-28T13:57:25.666Z,52.10
2022-11-28T13:59:55.504Z,50.43
2022-11-28T14:02:25.916Z,51.23
2022-11-28T14:04:54.453Z,46.87
2022-11-28T14:07:24.524Z,52.87
2022-11-28T14:09:57.420Z,46.43
2022-11-28T14:12:29.521Z,46.03
2022-11-28T14:15:06.589Z,41.23
2022-11-28T14:17:51.225Z,48.43
2022-11-28T14:20:26.352Z,47.33
2022-11-28T14:23:04.362Z,49.53
2022-11-28T14:25:33.880Z,43.07
2022-11-28T14:28:04.781Z,48.40
2022-11-28T14:30:34.922Z,48.10
2022-11-28T14:33:04.710Z,49.97
2022-11-28T14:35:51.661Z,51.50
2022-11-28T14:38:34.929Z,48.83
2022-11-28T14:41:04.230Z,49.60
2022-11-28T14:43:34.716Z,45.70
2022-11-28T14:46:33.118Z,44.80
2022-11-28T14:49:19.062Z,43.77
2022-11-28T14:52:30.965Z,44.03
2022-11-28T14:54:55.411Z,45.33
2022-11-28T14:57:26.064Z,47.33
2022-11-28T14:59:56.683Z,56.03
2022-11-28T15:02:38.139Z,45.60
2022-11-28T15:05:15.600Z,49.03
2022-11-28T15:07:50.004Z,53.20
2022-11-28T15:10:22.220Z,50.30
2022-11-28T15:12:56.978Z,49.90
2022-11-28T15:15:26.873Z,56.80
2022-11-28T15:17:56.043Z,53.37
2022-11-28T15:20:27.922Z,50.90
2022-11-28T15:22:56.423Z,53.50
2022-11-28T15:25:25.912Z,50.83
2022-11-28T15:27:55.500Z,47.00
2022-11-28T15:30:26.528Z,51.27
2022-11-28T15:32:57.612Z,53.47
2022-11-28T15:35:26.149Z,60.33
2022-11-28T15:37:56.611Z,53.20
2022-11-28T15:40:27.278Z,56.60
2022-11-28T15:42:56.060Z,58.53
2022-11-28T15:45:26.026Z,60.50
2022-11-28T15:47:55.252Z,71.07
2022-11-28T15:50:26.419Z,65.97
2022-11-28T15:52:55.609Z,79.20
2022-11-28T15:55:24.299Z,79.17
2022-11-28T15:57:52.775Z,71.93
2022-11-28T16:00:22.060Z,73.73
2022-11-28T16:02:50.632Z,76.30
2022-11-28T16:05:21.307Z,78.20
2022-11-28T16:07:52.256Z,92.90
2022-11-28T16:10:25.619Z,91.93
2022-11-28T16:13:00.177Z,96.37
2022-11-28T16:15:29.142Z,85.73
2022-11-28T16:17:57.985Z,104.40
2022-11-28T16:20:27.617Z,88.47
2022-11-28T16:23:02.639Z,105.97
2022-11-28T16:25:32.670Z,93.33
2022-11-28T16:28:01.342Z,89.07
2022-11-28T16:30:39.624Z,69.03
2022-11-28T16:33:22.990Z,59.40
2022-11-28T16:35:51.568Z,50.97
2022-11-28T16:38:24.039Z,52.53
2022-11-28T16:40:52.786Z,55.50
2022-11-28T16:43:23.053Z,72.87
2022-11-28T16:46:00.281Z,63.53
2022-11-28T16:48:29.801Z,109.60
2022-11-28T16:51:16.584Z,93.77
2022-11-28T16:53:47.870Z,85.87
2022-11-28T16:56:25.609Z,56.93
2022-11-28T16:58:55.681Z,55.30
2022-11-28T17:01:25.462Z,49.97
2022-11-28T17:03:55.589Z,51.80
2022-11-28T17:06:28.664Z,53.53
2022-11-28T17:08:58.702Z,52.87
2022-11-28T17:11:29.276Z,50.10
2022-11-28T17:13:58.421Z,48.87
2022-11-28T17:16:28.505Z,49.47
2022-11-28T17:18:57.479Z,52.57
2022-11-28T17:21:29.134Z,59.67
2022-11-28T17:23:59.084Z,62.10
2022-11-28T17:26:27.482Z,58.30
2022-11-28T17:28:55.914Z,244.33
2022-11-28T17:31:24.767Z,127.17
2022-11-28T17:33:53.190Z,55.17
2022-11-28T17:36:21.664Z,53.83
2022-11-28T17:38:50.079Z,44.33
2022-11-28T17:41:19.997Z,56.20
2022-11-28T17:43:48.473Z,53.33
2022-11-28T17:46:16.957Z,47.97
2022-11-28T17:48:45.400Z,51.90
2022-11-28T17:51:13.893Z,59.40
2022-11-28T17:53:42.411Z,60.47
2022-11-28T17:56:12.103Z,58.20
2022-11-28T17:58:41.974Z,57.63
2022-11-28T18:01:14.235Z,68.90
2022-11-28T18:03:42.835Z,66.93
2022-11-28T18:06:16.666Z,61.57
2022-11-28T18:08:45.095Z,56.27
2022-11-28T18:11:13.803Z,56.63
2022-11-28T18:13:43.906Z,55.77
2022-11-28T18:16:12.904Z,56.37
2022-11-28T18:18:41.560Z,53.80
2022-11-28T18:21:10.046Z,52.23
2022-11-28T18:23:39.497Z,53.67
2022-11-28T18:26:08.854Z,61.23
2022-11-28T18:28:37.382Z,61.60
2022-11-28T18:31:11.945Z,57.97
2022-11-28T18:33:40.554Z,58.40
2022-11-28T18:36:12.527Z,58.47
2022-11-28T18:38:41.270Z,57.23
2022-11-28T18:41:10.829Z,55.47
2022-11-28T18:43:39.685Z,52.47
2022-11-28T18:46:09.224Z,64.13
2022-11-28T18:48:39.791Z,68.27
2022-11-28T18:51:12.199Z,65.97
2022-11-28T18:53:40.813Z,70.67
2022-11-28T18:56:09.737Z,68.90
2022-11-28T18:58:39.224Z,67.73
2022-11-28T19:01:11.643Z,105.70
2022-11-28T19:03:41.922Z,61.83
2022-11-28T19:06:13.635Z,63.80
2022-11-28T19:08:42.198Z,61.70
2022-11-28T19:11:13.195Z,64.27
2022-11-28T19:13:41.796Z,61.53
2022-11-28T19:16:11.322Z,57.73
2022-11-28T19:18:41.547Z,51.33
2022-11-28T19:21:10.508Z,60.90
2022-11-28T19:23:39.362Z,52.60
2022-11-28T19:26:08.962Z,52.20
2022-11-28T19:28:37.446Z,47.80
2022-11-28T19:31:09.488Z,52.37
2022-11-28T19:33:37.924Z,60.07
2022-11-28T19:36:09.258Z,53.90
2022-11-28T19:38:38.354Z,55.10
2022-11-28T19:41:07.787Z,57.67
2022-11-28T19:43:36.292Z,63.03
2022-11-28T19:46:05.097Z,60.27
2022-11-28T19:48:34.538Z,57.40
2022-11-28T19:51:03.496Z,63.50
2022-11-28T19:53:34.155Z,56.07
2022-11-28T19:56:04.132Z,54.90
2022-11-28T19:58:32.681Z,55.73
2022-11-28T20:01:05.977Z,59.50
2022-11-28T20:03:34.838Z,63.73
2022-11-28T20:06:03.492Z,65.43
2022-11-28T20:08:33.360Z,60.57
2022-11-28T20:11:08.070Z,61.00
2022-11-28T20:13:36.577Z,58.03
2022-11-28T20:16:05.513Z,60.47
2022-11-28T20:18:33.993Z,54.73
2022-11-28T20:21:06.876Z,55.53
2022-11-28T20:23:40.230Z,61.33
2022-11-28T20:26:08.890Z,62.47
2022-11-28T20:28:38.284Z,61.27
2022-11-28T20:31:07.635Z,57.50
2022-11-28T20:33:36.056Z,62.43
2022-11-28T20:36:08.495Z,64.57
2022-11-28T20:38:38.621Z,61.97
2022-11-28T20:41:07.981Z,56.73
2022-11-28T20:43:37.650Z,61.30
2022-11-28T20:46:06.571Z,64.17
2022-11-28T20:48:35.153Z,59.73
2022-11-28T20:51:03.627Z,60.27
2022-11-28T20:53:33.201Z,60.70
2022-11-28T20:56:03.753Z,59.00
2022-11-28T20:58:32.967Z,57.70
2022-11-28T21:01:01.495Z,56.83
2022-11-28T21:03:30.021Z,60.87
2022-11-28T21:06:01.249Z,64.40
2022-11-28T21:08:31.296Z,63.67
2022-11-28T21:10:59.893Z,62.67
2022-11-28T21:13:29.733Z,55.33
2022-11-28T21:15:58.573Z,56.60
2022-11-28T21:18:27.087Z,58.47
2022-11-28T21:20:55.493Z,52.10
2022-11-28T21:23:23.866Z,55.83
2022-11-28T21:25:52.242Z,63.43
2022-11-28T21:28:20.766Z,54.30
2022-11-28T21:30:50.563Z,70.30
2022-11-28T21:33:19.050Z,71.80
2022-11-28T21:35:47.554Z,64.13
2022-11-28T21:38:16.012Z,62.63
2022-11-28T21:40:44.467Z,71.47
2022-11-28T21:43:12.846Z,69.67
2022-11-28T21:45:41.390Z,72.07
2022-11-28T21:48:11.357Z,66.60
2022-11-28T21:50:39.930Z,70.57
2022-11-28T21:53:08.455Z,66.67
2022-11-28T21:55:38.657Z,68.10
2022-11-28T21:58:07.125Z,81.93
2022-11-28T22:00:52.576Z,67.37
2022-11-28T22:03:23.352Z,62.27
2022-11-28T22:05:52.578Z,63.53
2022-11-28T22:08:21.059Z,61.70
2022-11-28T22:10:49.505Z,72.90
2022-11-28T22:13:18.306Z,69.37
2022-11-28T22:15:46.792Z,67.07
2022-11-28T22:18:15.785Z,69.17
2022-11-28T22:20:50.215Z,65.43
2022-11-28T22:23:21.292Z,66.87
2022-11-28T22:25:53.276Z,73.47
2022-11-28T22:28:22.075Z,66.27
2022-11-28T22:30:50.505Z,70.40
2022-11-28T22:33:20.256Z,67.97
2022-11-28T22:35:50.116Z,60.20
2022-11-28T22:38:18.855Z,68.30
2022-11-28T22:40:47.387Z,60.97
2022-11-28T22:43:15.844Z,63.17
2022-11-28T22:45:44.357Z,59.33
2022-11-28T22:48:12.787Z,67.50
2022-11-28T22:50:41.365Z,56.10
2022-11-28T22:53:11.321Z,56.47
2022-11-28T22:55:39.833Z,64.33
2022-11-28T22:58:08.310Z,57.57
2022-11-28T23:00:37.206Z,61.97
2022-11-28T23:03:05.817Z,61.93
2022-11-28T23:05:34.478Z,59.13
2022-11-28T23:08:02.876Z,64.33
2022-11-28T23:10:32.851Z,59.93
2022-11-28T23:13:01.245Z,57.97
2022-11-28T23:15:29.739Z,54.27
2022-11-28T23:17:58.275Z,56.13
2022-11-28T23:20:27.923Z,57.90
2022-11-28T23:22:56.369Z,59.07
2022-11-28T23:25:24.751Z,59.23
2022-11-28T23:27:54.448Z,59.90
2022-11-28T23:30:22.909Z,54.77
2022-11-28T23:32:51.348Z,57.27
2022-11-28T23:35:19.856Z,57.93
2022-11-28T23:37:48.412Z,58.37
2022-11-28T23:40:16.989Z,59.30
2022-11-28T23:42:46.083Z,57.30
2022-11-28T23:45:16.187Z,54.80
2022-11-28T23:47:44.635Z,54.80
2022-11-28T23:50:13.775Z,57.17
2022-11-28T23:52:42.177Z,54.90
2022-11-28T23:55:10.946Z,56.47
2022-11-28T23:57:39.378Z,55.50
